createdAt,value
2019-03-17T00:00:01.747Z,0.71
2019-03-17T00:05:01.072Z,0.96
2019-03-17T00:10:01.678Z,0.56
2019-03-17T00:15:05.789Z,0.49
2019-03-17T00:20:01.728Z,0.64
2019-03-17T00:25:08.983Z,0.33
2019-03-17T00:30:01.706Z,0.73
2019-03-17T00:35:01.045Z,0.87
2019-03-17T00:40:01.680Z,0.37
2019-03-17T00:45:01.053Z,0.78
2019-03-17T00:50:01.693Z,0.63
2019-03-17T00:55:01.048Z,0.90
2019-03-17T01:00:01.693Z,0.96
2019-03-17T01:05:01.097Z,1.09
2019-03-17T01:10:01.697Z,0.87
2019-03-17T01:15:01.044Z,0.39
2019-03-17T01:20:01.713Z,0.51
2019-03-17T01:25:01.019Z,0.02
2019-03-17T01:30:02.101Z,0.69
2019-03-17T01:35:08.955Z,0.47
2019-03-17T01:40:01.753Z,0.36
2019-03-17T01:45:01.018Z,0.48
2019-03-17T01:50:01.708Z,0.61
2019-03-17T01:55:01.045Z,0.87
2019-03-17T02:00:01.726Z,0.50
2019-03-17T02:05:01.013Z,0.70
2019-03-17T02:10:02.109Z,0.58
2019-03-17T02:15:01.035Z,0.16
2019-03-17T02:20:02.183Z,0.00
2019-03-17T02:25:01.035Z,0.32
2019-03-17T02:30:01.772Z,0.78
2019-03-17T02:35:01.027Z,0.81
2019-03-17T02:40:01.754Z,0.93
2019-03-17T02:45:01.052Z,0.26
2019-03-17T02:50:01.725Z,0.74
2019-03-17T02:55:01.025Z,0.76
2019-03-17T03:00:01.760Z,0.31
2019-03-17T03:05:01.021Z,0.86
2019-03-17T03:10:02.088Z,0.43
2019-03-17T03:15:01.047Z,0.71
2019-03-17T03:20:01.777Z,0.85
2019-03-17T03:25:01.081Z,0.81
2019-03-17T03:30:02.201Z,0.11
2019-03-17T03:35:01.036Z,0.02
2019-03-17T03:40:01.782Z,0.89
2019-03-17T03:45:01.042Z,0.11
2019-03-17T03:50:01.763Z,0.60
2019-03-17T03:55:01.020Z,0.49
2019-03-17T04:00:02.168Z,0.91
2019-03-17T04:05:01.025Z,0.49
2019-03-17T04:10:01.738Z,0.71
2019-03-17T04:15:01.075Z,0.55
2019-03-17T04:20:01.741Z,0.45
2019-03-17T04:25:01.057Z,0.63
2019-03-17T04:30:02.061Z,0.33
2019-03-17T04:35:01.075Z,0.10
2019-03-17T04:40:05.894Z,0.29
2019-03-17T04:45:01.055Z,0.03
2019-03-17T04:50:01.757Z,0.29
2019-03-17T04:55:01.019Z,0.68
2019-03-17T05:00:01.792Z,0.22
2019-03-17T05:05:01.022Z,0.33
2019-03-17T05:10:01.767Z,0.00
2019-03-17T05:15:01.038Z,0.33
2019-03-17T05:20:01.798Z,0.72
2019-03-17T05:25:01.101Z,1.07
2019-03-17T05:30:02.115Z,1.00
2019-03-17T05:35:01.052Z,1.40
2019-03-17T05:40:02.143Z,0.37
2019-03-17T05:45:01.055Z,0.00
2019-03-17T05:50:01.791Z,0.09
2019-03-17T05:55:01.024Z,0.00
2019-03-17T06:00:01.821Z,0.00
2019-03-17T06:05:01.061Z,0.00
2019-03-17T06:10:01.791Z,0.00
2019-03-17T06:15:01.027Z,0.01
2019-03-17T06:20:01.785Z,0.00
2019-03-17T06:25:01.303Z,0.00
2019-03-17T06:30:03.850Z,0.00
2019-03-17T06:35:01.568Z,0.00
2019-03-17T06:40:01.784Z,0.00
2019-03-17T06:45:01.037Z,0.00
2019-03-17T06:50:01.859Z,0.02
2019-03-17T06:55:01.085Z,0.01
2019-03-17T07:00:02.152Z,0.23
2019-03-17T07:05:01.060Z,0.19
2019-03-17T07:10:02.118Z,0.00
2019-03-17T07:15:01.059Z,0.36
2019-03-17T07:20:02.287Z,0.25
2019-03-17T07:25:01.079Z,0.73
2019-03-17T07:30:01.799Z,0.29
2019-03-17T07:35:01.052Z,0.13
2019-03-17T07:40:02.102Z,0.21
2019-03-17T07:45:01.026Z,0.29
2019-03-17T07:50:02.561Z,1.33
2019-03-17T07:55:07.518Z,0.21
2019-03-17T08:00:01.840Z,0.00
2019-03-17T08:05:01.066Z,0.07
2019-03-17T08:10:04.490Z,0.53
2019-03-17T08:15:01.040Z,0.70
2019-03-17T08:20:01.830Z,0.59
2019-03-17T08:25:01.087Z,0.82
2019-03-17T08:30:02.291Z,0.72
2019-03-17T08:35:01.026Z,0.71
2019-03-17T08:40:02.146Z,0.70
2019-03-17T08:45:01.340Z,1.00
2019-03-17T08:50:01.905Z,0.86
2019-03-17T08:55:01.028Z,0.67
2019-03-17T09:00:01.846Z,0.69
2019-03-17T09:05:01.041Z,0.64
2019-03-17T09:10:01.847Z,1.25
2019-03-17T09:15:01.026Z,0.66
2019-03-17T09:20:01.877Z,0.79
2019-03-17T09:25:01.085Z,1.03
2019-03-17T09:30:01.875Z,1.38
2019-03-17T09:35:01.035Z,1.03
2019-03-17T09:40:01.882Z,1.47
2019-03-17T09:45:01.031Z,1.95
2019-03-17T09:50:01.863Z,1.00
2019-03-17T09:55:01.078Z,1.85
2019-03-17T10:00:01.888Z,2.43
2019-03-17T10:05:01.087Z,1.83
2019-03-17T10:10:01.911Z,1.48
2019-03-17T10:15:01.605Z,2.63
2019-03-17T10:20:01.906Z,4.34
2019-03-17T10:25:01.101Z,3.01
2019-03-17T10:30:01.924Z,3.96
2019-03-17T10:35:01.095Z,4.72
2019-03-17T10:40:01.894Z,5.45
2019-03-17T10:45:01.095Z,4.93
2019-03-17T10:50:01.907Z,4.05
2019-03-17T10:55:01.083Z,2.63
2019-03-17T11:00:01.967Z,2.24
2019-03-17T11:05:01.411Z,3.41
2019-03-17T11:10:01.953Z,3.10
2019-03-17T11:15:01.490Z,3.17
2019-03-17T11:20:01.930Z,3.81
2019-03-17T11:25:01.545Z,4.67
2019-03-17T11:30:01.934Z,5.01
2019-03-17T11:35:01.615Z,5.35
2019-03-17T11:40:02.025Z,3.43
2019-03-17T11:45:01.112Z,4.90
2019-03-17T11:50:01.969Z,4.05
2019-03-17T11:55:01.079Z,5.44
2019-03-17T12:00:02.072Z,6.85
2019-03-17T12:05:01.594Z,6.11
2019-03-17T12:10:01.951Z,5.16
2019-03-17T12:15:01.139Z,5.60
2019-03-17T12:20:02.101Z,4.46
2019-03-17T12:25:01.100Z,3.05
2019-03-17T12:30:02.011Z,4.56
2019-03-17T12:35:01.049Z,4.73
2019-03-17T12:40:03.060Z,4.87
2019-03-17T12:45:01.195Z,5.96
2019-03-17T12:50:02.378Z,3.19
2019-03-17T12:55:02.464Z,5.21
2019-03-17T13:00:02.051Z,5.40
2019-03-17T13:05:01.084Z,5.37
2019-03-17T13:10:14.583Z,6.63
2019-03-17T13:15:01.048Z,5.77
2019-03-17T13:20:02.727Z,5.19
2019-03-17T13:25:01.053Z,5.91
2019-03-17T13:30:02.044Z,5.70
2019-03-17T13:35:01.060Z,5.38
2019-03-17T13:40:05.309Z,4.99
2019-03-17T13:45:01.142Z,6.34
2019-03-17T13:50:01.062Z,6.90
2019-03-17T13:55:01.068Z,5.90
2019-03-17T14:00:01.046Z,5.75
2019-03-17T14:05:02.006Z,7.97
2019-03-17T14:10:12.622Z,6.15
2019-03-17T14:15:01.066Z,7.77
2019-03-17T14:20:01.224Z,6.33
2019-03-17T14:25:01.375Z,11.31
2019-03-17T14:30:04.017Z,7.35
2019-03-17T14:35:01.081Z,6.50
2019-03-17T14:40:01.515Z,6.07
2019-03-17T14:45:01.046Z,6.89
2019-03-17T14:50:01.573Z,5.47
2019-03-17T14:55:01.093Z,5.98
2019-03-17T15:00:01.092Z,5.04
2019-03-17T15:05:01.449Z,4.41
2019-03-17T15:10:01.491Z,5.29
2019-03-17T15:15:01.108Z,4.33
2019-03-17T15:20:01.085Z,4.91
2019-03-17T15:25:01.117Z,5.55
2019-03-17T15:30:01.551Z,5.38
2019-03-17T15:35:05.426Z,4.28
2019-03-17T15:40:01.400Z,5.10
2019-03-17T15:45:01.708Z,5.98
2019-03-17T15:50:01.058Z,6.91
2019-03-17T15:55:01.069Z,6.84
2019-03-17T16:00:01.879Z,6.66
2019-03-17T16:05:01.947Z,5.35
2019-03-17T16:10:01.132Z,5.04
2019-03-17T16:15:01.051Z,4.50
2019-03-17T16:20:01.084Z,5.04
2019-03-17T16:25:01.217Z,4.91
2019-03-17T16:30:01.173Z,5.80
2019-03-17T16:35:01.118Z,4.65
2019-03-17T16:40:01.140Z,4.31
2019-03-17T16:45:01.043Z,3.24
2019-03-17T16:50:01.051Z,4.58
2019-03-17T16:55:01.242Z,4.97
2019-03-17T17:00:01.232Z,5.00
2019-03-17T17:05:01.466Z,4.14
2019-03-17T17:10:01.339Z,4.51
2019-03-17T17:15:01.632Z,3.93
2019-03-17T17:20:01.300Z,3.43
2019-03-17T17:25:01.416Z,3.24
2019-03-17T17:30:01.279Z,3.69
2019-03-17T17:35:01.117Z,3.60
2019-03-17T17:40:01.311Z,4.11
2019-03-17T17:45:01.053Z,3.85
2019-03-17T17:50:01.052Z,4.19
2019-03-17T17:55:01.063Z,4.25
2019-03-17T18:00:01.049Z,4.35
2019-03-17T18:05:01.056Z,3.20
2019-03-17T18:10:01.525Z,3.40
2019-03-17T18:15:01.049Z,3.68
2019-03-17T18:20:01.067Z,2.77
2019-03-17T18:25:01.567Z,2.93
2019-03-17T18:30:01.043Z,2.78
2019-03-17T18:35:01.364Z,2.56
2019-03-17T18:40:01.039Z,2.23
2019-03-17T18:45:01.070Z,2.33
2019-03-17T18:50:01.152Z,1.53
2019-03-17T18:55:01.107Z,1.56
2019-03-17T19:00:04.228Z,2.01
2019-03-17T19:05:01.086Z,1.89
2019-03-17T19:10:01.971Z,1.07
2019-03-17T19:15:01.219Z,1.38
2019-03-17T19:20:01.084Z,1.53
2019-03-17T19:25:01.141Z,1.79
2019-03-17T19:30:01.123Z,3.50
2019-03-17T19:35:01.673Z,4.16
2019-03-17T19:40:01.556Z,4.66
2019-03-17T19:45:02.061Z,4.81
2019-03-17T19:50:01.412Z,4.92
2019-03-17T19:55:01.552Z,5.47
2019-03-17T20:00:01.908Z,5.11
2019-03-17T20:05:01.442Z,5.14
2019-03-17T20:10:01.427Z,5.34
2019-03-17T20:15:01.489Z,5.34
2019-03-17T20:20:01.499Z,4.82
2019-03-17T20:25:01.603Z,4.36
2019-03-17T20:30:01.708Z,3.66
2019-03-17T20:35:01.750Z,3.53
2019-03-17T20:40:02.285Z,3.46
2019-03-17T20:45:01.134Z,3.35
2019-03-17T20:50:01.101Z,3.77
2019-03-17T20:55:01.089Z,3.23
2019-03-17T21:00:01.133Z,2.47
2019-03-17T21:05:01.115Z,1.23
2019-03-17T21:10:01.838Z,1.04
2019-03-17T21:15:01.120Z,0.44
2019-03-17T21:20:01.487Z,0.68
2019-03-17T21:25:01.876Z,1.47
2019-03-17T21:30:01.123Z,2.06
2019-03-17T21:35:01.522Z,1.85
2019-03-17T21:40:01.127Z,1.69
2019-03-17T21:45:01.079Z,1.86
2019-03-17T21:50:01.165Z,1.39
2019-03-17T21:55:01.085Z,1.11
2019-03-17T22:00:01.059Z,0.95
2019-03-17T22:05:01.407Z,1.12
2019-03-17T22:10:01.631Z,1.16
2019-03-17T22:15:01.183Z,1.15
2019-03-17T22:20:01.112Z,1.63
2019-03-17T22:25:01.437Z,1.93
2019-03-17T22:30:01.082Z,1.81
2019-03-17T22:35:01.444Z,1.24
2019-03-17T22:40:01.059Z,1.75
2019-03-17T22:45:01.054Z,1.98
2019-03-17T22:50:01.051Z,2.07
2019-03-17T22:55:01.052Z,1.53
2019-03-17T23:00:01.083Z,1.59
2019-03-17T23:05:01.071Z,1.67
2019-03-17T23:10:01.054Z,1.77
2019-03-17T23:15:01.463Z,1.80
2019-03-17T23:20:01.062Z,1.91
2019-03-17T23:25:01.536Z,2.76
2019-03-17T23:30:01.051Z,1.83
2019-03-17T23:35:01.028Z,1.89
2019-03-17T23:40:01.422Z,1.21
2019-03-17T23:45:01.044Z,1.83
2019-03-17T23:50:01.057Z,1.45
2019-03-17T23:55:01.039Z,1.47
